Saturday, November 01, 2014
03:26 UTC
  |  Log In   |  Register Free
Airport Search:

Henry Post Aaf (Fort Sill) Airport
(KFSI)

Henry Post Aaf (Fort Sill) Airport Diagram
No Airport Diagram Available

FAA data valid effective September 18, 2014 - November 13, 2014 (unless otherwise noted).

 
 
 
 
 
 
 
 
 
 
 
 
 
 

Current Aviation Weather for Henry Post Aaf (Fort Sill) Airport (KFSI)

The most recent METAR observation for KFSI was updated at: 0220
METAR Summary (Translated METAR)
KFSI
010158Z AUTO 02008KT 10SM CLR 07/M02 A3038 RMK AO2 SLP290 T00741023
KLAW
010153Z AUTO 03009KT 10SM CLR 09/M03 A3039 RMK AO2 SLP294 T00941028
(5.0 nm SW from KFSI)
KDUC
010155Z AUTO 00000KT 10SM CLR 08/00 A3039 RMK AO2
(24.4 nm SE from KFSI)
TAF Summary (Translated TAF)
KFSI
3121/0203 03014G22KT 9999 SCT024 510003 QNH3037INS BECMG 3122/3123 03008KT 9999 SKC QNH3036INS BECMG 0114/0115 14009KT 9999 FEW080 QNH3036INS TX16/3121Z TNM02/0112Z
KLAW
(5.0 nm SW from KFSI)
311720Z 3118/0118 02016G24KT P6SM SKC FM010000 05005KT P6SM FEW250 FM011400 14009KT P6SM FEW250
  Airport Weather Conditions for KFSI

 Current Weather at FSI
45° F
Fair
North winds at 9.2 mph
FSI NOAA Radar

Pressure: 30.38 in
Humidity: 51%
Wind: North at 9.2 MPH (8 KT)
Dew Point: 27.9°F
Visibility: 10.00 mi


Airport Weather Forecast for KFSI

Translated METAR and TAF for KFSI
Translated METAR for KFSI (0321 UTC 01 November 2014)
found at http://aviationweather.gov/adds/metars/
 
METAR text: KFSI 010258Z AUTO 02007KT 10SM CLR 05/M02 A3039 RMK AO2 SLP293 T00491018 52012
Conditions at: KFSI (FORT SILL , OK, US) observed 0258 UTC 01 November 2014
Temperature: 4.9°C (41°F)
Dewpoint: -1.8°C (29°F) [RH = 62%]
Pressure (altimeter): 30.39 inches Hg (1029.2 mb)
[Sea-level pressure: 1029.3 mb]
Winds: from the NNE (20 degrees) at 8 MPH (7 knots; 3.6 m/s)
Visibility: 10 or more miles (16+ km)
Ceiling: at least 12,000 feet AGL
Clouds: sky clear below 12,000 feet AGL
Weather: automated observation with no human augmentation;
there may or may not be significant weather present at this time
Translated TAF for KFSI
Forecast for: KFSI (FORT SILL , OK, US)
TAF Text: TAF AMD KFSI 0102/0203 03008KT 9999 SKC QNH3036INS
Forecast period: 0200 to 1400 UTC 01 November 2014
Forecast type: FROM: standard forecast or significant change
Winds: from the NNE (30 degrees) at 9 MPH (8 knots; 4.2 m/s)
Visibility: 6 or more miles (10+ km)
Clouds: clear skies
Weather: no significant weather forecast for this period
TAF Text: BECMG 0114/0115 14009KT 9999 FEW080 QNH3036INS TX16/0121Z TNM02/0112Z AMD 010231 LAST NO AMDS AFT 0103 NEXT 0313
Forecast period: 1400 UTC 01 November 2014 to 0300 UTC 02 November 2014
Forecast type: BECOMING: Conditions expected to become as follows by 1500 UTC 01 November 2014
Winds: from the SE (140 degrees) at 10 MPH (9 knots; 4.7 m/s)
Visibility: 6 or more miles (10+ km)
Clouds: few clouds at 8000 feet AGL
Weather: no significant weather forecast for this period

Find All Airport Services Find A Hotel Find A Rental Car Find A Golf Course Find A Restaurant $100 Hamburger



FBO's on the Field
FBO Company Facility Photos Services Transportation Aviation Fuel Prices: Prices include tax
Catering Weather Repair Courtesy Rental Type 100LL JetA JetA+ MOGAS 8087
 
Add another FBO Facility Photos Catering Weather Repair Courtesy Rental Type 100LL JetA JetA+ MOGAS 8087
Services Transportation Aviation Fuel Prices: Prices include tax
There are no FBO's currently reporting fuel at FSI. List your FBO now


model-print
model-print
model-print
model-print